Time;durP1;ratioP1;P1;durP2;ratioP2;P2;SDS_P1;SDS_P2;PMS_P1;PMS_P2;Temp;Humidity;BMP_temperature;BMP_pressure;BME280_temperature;BME280_humidity;BME280_pressure;Samples;Min_cycle;Max_cycle;Signal;HPM_P1;HPM_P2
2022/10/28 00:01:16;;;;;;;31.80;18.58;;;;;;;;;;5037940;28;20075;-71
2022/10/28 00:03:45;;;;;;;31.00;18.60;;;;;;;;;;5032678;28;20017;-71
2022/10/28 00:06:10;;;;;;;;;;;;;;;;;;5053096;28;20029;-70
2022/10/28 00:08:36;;;;;;;29.37;17.87;;;;;;;;;;5039154;28;19917;-71
2022/10/28 00:11:07;;;;;;;37.00;19.95;;;;;;;;;;5039705;28;20059;-70
2022/10/28 00:13:33;;;;;;;28.00;17.50;;;;;;;;;;5035351;28;20053;-70
2022/10/28 00:16:04;;;;;;;28.80;17.23;;;;;;;;;;5037218;28;20044;-70
2022/10/28 00:18:30;;;;;;;28.65;16.30;;;;;;;;;;5034022;28;20036;-70
2022/10/28 00:21:14;;;;;;;26.67;17.60;;;;;;;;;;5035787;28;20025;-72
2022/10/28 00:23:40;;;;;;;27.10;16.45;;;;;;;;;;5038465;28;20376;-70
2022/10/28 00:26:10;;;;;;;27.92;17.05;;;;;;;;;;5036031;28;20037;-70
2022/10/28 00:28:39;;;;;;;23.85;16.67;;;;;;;;;;5038368;28;20029;-73
2022/10/28 00:31:05;;;;;;;24.30;16.42;;;;;;;;;;5036178;28;20095;-69
2022/10/28 00:33:30;;;;;;;23.45;15.82;;;;;;;;;;5052229;28;20140;-71
2022/10/28 00:35:56;;;;;;;28.95;16.70;;;;;;;;;;5038277;28;20105;-70
2022/10/28 00:38:21;;;;;;;24.03;16.17;;;;;;;;;;5040390;28;20032;-70
2022/10/28 00:40:46;;;;;;;27.10;16.53;;;;;;;;;;5040361;28;20517;-70
2022/10/28 00:43:11;;;;;;;22.63;15.50;;;;;;;;;;5039332;28;20446;-70
2022/10/28 00:45:37;;;;;;;24.03;15.00;;;;;;;;;;5036441;28;20026;-69
2022/10/28 00:48:03;;;;;;;22.27;15.13;;;;;;;;;;5042137;28;20281;-69
2022/10/28 00:50:34;;;;;;;25.40;15.65;;;;;;;;;;5033083;28;20458;-70
2022/10/28 00:53:01;;;;;;;27.42;16.02;;;;;;;;;;5037624;28;20527;-70
2022/10/28 00:55:27;;;;;;;26.70;15.73;;;;;;;;;;5040454;28;20029;-70
2022/10/28 00:57:55;;;;;;;24.23;15.35;;;;;;;;;;5043407;28;20045;-70
2022/10/28 01:00:21;;;;;;;23.65;15.73;;;;;;;;;;5042978;28;20119;-70
2022/10/28 01:02:47;;;;;;;22.42;14.75;;;;;;;;;;5041759;28;20096;-71
2022/10/28 01:05:14;;;;;;;21.95;14.10;;;;;;;;;;5044772;28;20122;-70
2022/10/28 01:07:39;;;;;;;20.92;13.73;;;;;;;;;;5037805;28;20034;-70
2022/10/28 01:10:05;;;;;;;23.50;15.27;;;;;;;;;;5042240;28;20105;-69
2022/10/28 01:12:49;;;;;;;26.67;15.80;;;;;;;;;;5042537;28;20033;-69
2022/10/28 01:15:17;;;;;;;18.63;12.75;;;;;;;;;;5038677;28;20024;-71
2022/10/28 01:17:43;;;;;;;11.48;8.55;;;;;;;;;;5040798;28;20025;-70
2022/10/28 01:20:11;;;;;;;13.32;9.05;;;;;;;;;;5055184;28;20028;-71
2022/10/28 01:23:08;;;;;;;14.98;10.27;;;;;;;;;;5037349;28;20036;-70
2022/10/28 01:26:03;;;;;;;21.70;14.48;;;;;;;;;;4991748;28;20060;-71
2022/10/28 01:28:46;;;;;;;25.33;14.60;;;;;;;;;;4978867;28;20125;-70
2022/10/28 01:31:18;;;;;;;22.77;14.98;;;;;;;;;;4991978;28;20035;-70
2022/10/28 01:34:01;;;;;;;24.02;14.90;;;;;;;;;;4992269;28;20030;-70
2022/10/28 01:36:35;;;;;;;22.23;15.20;;;;;;;;;;4991361;28;20488;-70
2022/10/28 01:39:11;;;;;;;27.45;15.85;;;;;;;;;;4991557;28;20030;-71
2022/10/28 01:41:40;;;;;;;22.75;14.55;;;;;;;;;;4989815;28;20034;-70
2022/10/28 01:44:26;;;;;;;23.83;15.15;;;;;;;;;;4991772;28;20149;-71
2022/10/28 01:46:51;;;;;;;21.95;14.45;;;;;;;;;;4990960;28;20053;-69
2022/10/28 01:49:20;;;;;;;24.83;14.90;;;;;;;;;;4991820;28;20431;-70
2022/10/28 01:51:47;;;;;;;25.85;15.38;;;;;;;;;;4991737;28;20081;-70
2022/10/28 01:54:14;;;;;;;26.33;14.68;;;;;;;;;;4991553;28;20615;-70
2022/10/28 01:56:41;;;;;;;18.95;13.43;;;;;;;;;;4990826;28;20054;-70
2022/10/28 01:59:10;;;;;;;19.83;14.00;;;;;;;;;;4991413;28;20030;-69
2022/10/28 02:01:35;;;;;;;21.13;14.13;;;;;;;;;;5025949;28;20029;-72
2022/10/28 02:04:01;;;;;;;22.45;14.43;;;;;;;;;;5041683;28;20026;-70
2022/10/28 02:06:29;;;;;;;22.90;14.18;;;;;;;;;;5041605;28;20028;-69
2022/10/28 02:09:00;;;;;;;21.52;14.63;;;;;;;;;;5057045;28;20028;-70
2022/10/28 02:11:31;;;;;;;23.95;15.70;;;;;;;;;;5053975;28;20048;-72
2022/10/28 02:13:56;;;;;;;22.90;15.18;;;;;;;;;;5034038;28;20104;-72
2022/10/28 02:16:22;;;;;;;21.97;14.70;;;;;;;;;;5038894;28;20103;-72
2022/10/28 02:18:54;;;;;;;25.40;14.80;;;;;;;;;;5054088;28;20068;-71
2022/10/28 02:21:28;;;;;;;29.27;16.70;;;;;;;;;;5034796;28;20025;-72
2022/10/28 02:24:01;;;;;;;29.48;17.13;;;;;;;;;;5040186;28;20025;-71
2022/10/28 02:26:35;;;;;;;31.90;16.58;;;;;;;;;;5038359;28;20060;-71
2022/10/28 02:29:07;;;;;;;31.05;17.70;;;;;;;;;;5039221;28;20028;-70
2022/10/28 02:31:35;;;;;;;30.17;19.30;;;;;;;;;;5035553;28;20029;-71
2022/10/28 02:34:21;;;;;;;37.17;20.08;;;;;;;;;;5040043;28;20016;-70
2022/10/28 02:36:48;;;;;;;32.88;19.63;;;;;;;;;;5033006;28;20061;-70
2022/10/28 02:39:15;;;;;;;33.60;20.02;;;;;;;;;;5040032;28;20021;-72
2022/10/28 02:42:02;;;;;;;31.08;19.40;;;;;;;;;;5037125;28;20024;-70
2022/10/28 02:44:30;;;;;;;33.00;19.02;;;;;;;;;;5036073;28;20745;-71
2022/10/28 02:46:58;;;;;;;29.63;19.17;;;;;;;;;;5041248;28;20084;-70
2022/10/28 02:49:24;;;;;;;30.00;19.02;;;;;;;;;;5040750;28;20032;-69
2022/10/28 02:51:58;;;;;;;31.67;19.02;;;;;;;;;;5038120;28;20068;-70
2022/10/28 02:54:23;;;;;;;31.02;18.45;;;;;;;;;;5041098;28;20455;-73
2022/10/28 02:56:54;;;;;;;28.73;18.23;;;;;;;;;;5038896;28;20076;-71
2022/10/28 02:59:19;;;;;;;31.08;18.65;;;;;;;;;;5042165;28;20048;-71
2022/10/28 03:01:44;;;;;;;29.83;18.07;;;;;;;8.56;nan;101862.69;5042766;28;20561;-73
2022/10/28 03:04:10;;;;;;;26.52;17.83;;;;;;;;;;5039901;28;20351;-74
2022/10/28 03:06:35;;;;;;;29.87;17.57;;;;;;;;;;5037862;28;20025;-74
2022/10/28 03:09:00;;;;;;;28.50;17.07;;;;;;;;;;5039679;28;20081;-74
2022/10/28 03:11:25;;;;;;;32.57;17.47;;;;;;;;;;5039212;28;20025;-74
2022/10/28 03:13:51;;;;;;;27.65;17.02;;;;;;;;;;5040073;28;20549;-73
2022/10/28 03:16:16;;;;;;;26.87;16.97;;;;;;;;;;5037447;28;20026;-74
2022/10/28 03:18:41;;;;;;;27.38;16.80;;;;;;;;;;5039408;28;20060;-74
2022/10/28 03:21:07;;;;;;;30.13;16.75;;;;;;;;;;5036147;28;20057;-74
2022/10/28 03:23:32;;;;;;;30.35;16.70;;;;;;;;;;5040051;28;20080;-74
2022/10/28 03:25:57;;;;;;;25.07;15.73;;;;;;;;;;5038054;28;20033;-71
2022/10/28 03:28:22;;;;;;;27.17;16.30;;;;;;;;;;5038523;28;20445;-70
2022/10/28 03:30:48;;;;;;;26.40;15.63;;;;;;;;;;5039114;28;20028;-70
2022/10/28 03:33:13;;;;;;;30.77;17.15;;;;;;;;;;5038697;28;20035;-71
2022/10/28 03:35:39;;;;;;;28.05;16.40;;;;;;;;;;5037800;28;20029;-70
2022/10/28 03:38:04;;;;;;;26.45;16.17;;;;;;;;;;5038555;28;20104;-71
2022/10/28 03:40:29;;;;;;;26.75;16.85;;;;;;;;;;5037929;28;20025;-74
2022/10/28 03:42:54;;;;;;;29.67;16.60;;;;;;;;;;5041032;28;20014;-73
2022/10/28 03:45:20;;;;;;;26.27;16.10;;;;;;;;;;5037772;28;20029;-74
2022/10/28 03:47:45;;;;;;;24.43;15.43;;;;;;;;;;5041756;28;20071;-74
2022/10/28 03:50:10;;;;;;;26.77;16.27;;;;;;;;;;5038433;28;20140;-74
2022/10/28 03:52:35;;;;;;;25.77;15.95;;;;;;;;;;5039409;28;20344;-73
2022/10/28 03:55:01;;;;;;;32.25;18.35;;;;;;;;;;5038554;28;20061;-73
2022/10/28 03:57:29;;;;;;;25.55;16.85;;;;;;;;;;5040288;28;20158;-73
2022/10/28 03:59:54;;;;;;;29.63;17.00;;;;;;;;;;5052871;28;20044;-74
2022/10/28 04:02:19;;;;;;;32.23;17.20;;;;;;;;;;5039405;28;20466;-73
2022/10/28 04:04:44;;;;;;;27.37;16.30;;;;;;;;;;5038937;28;20033;-73
2022/10/28 04:07:10;;;;;;;25.70;16.53;;;;;;;;;;5039983;28;20307;-73
2022/10/28 04:09:35;;;;;;;26.83;16.10;;;;;;;;;;5035531;28;20064;-73
2022/10/28 04:12:00;;;;;;;26.90;16.70;;;;;;;;;;5039405;28;20075;-73
2022/10/28 04:14:25;;;;;;;24.53;15.00;;;;;;;;;;5035575;28;20318;-74
2022/10/28 04:16:51;;;;;;;33.23;18.50;;;;;;;;;;5041443;28;20075;-74
2022/10/28 04:19:16;;;;;;;39.83;22.07;;;;;;;;;;5036183;28;20048;-73
2022/10/28 04:21:41;;;;;;;40.87;20.87;;;;;;;;;;5033684;28;20010;-72
2022/10/28 04:24:06;;;;;;;35.77;20.00;;;;;;;;;;5036925;28;20281;-74
2022/10/28 04:26:32;;;;;;;28.05;16.92;;;;;;;;;;5036382;28;20849;-73
2022/10/28 04:28:57;;;;;;;26.20;15.50;;;;;;;;;;5036158;28;20541;-74
2022/10/28 04:31:22;;;;;;;25.88;14.63;;;;;;;;;;5042686;28;20479;-73
2022/10/28 04:33:47;;;;;;;27.90;15.63;;;;;;;;;;5041362;28;20029;-73
2022/10/28 04:36:13;;;;;;;29.53;16.60;;;;;;;;;;5040556;28;20025;-71
2022/10/28 04:38:38;;;;;;;29.23;16.40;;;;;;;;;;5039511;28;20313;-69
2022/10/28 04:41:03;;;;;;;27.37;17.20;;;;;;;;;;5040502;28;20293;-70
2022/10/28 04:43:28;;;;;;;31.67;17.08;;;;;;;;;;5043628;28;20384;-69
2022/10/28 04:45:54;;;;;;;29.85;18.27;;;;;;;;;;5044678;28;20070;-70
2022/10/28 04:48:19;;;;;;;27.55;17.05;;;;;;;;;;5038442;28;20482;-70
2022/10/28 04:50:44;;;;;;;30.00;17.95;;;;;;;;;;5040587;28;20029;-69
2022/10/28 04:53:10;;;;;;;28.33;17.23;;;;;;;;;;5040592;28;20585;-70
2022/10/28 04:55:35;;;;;;;29.50;17.48;;;;;;;;;;5044410;28;20293;-70
2022/10/28 04:58:01;;;;;;;30.20;18.05;;;;;;;;;;5039114;28;20048;-72
2022/10/28 05:00:26;;;;;;;30.83;17.33;;;;;;;;;;5042224;28;20425;-71
2022/10/28 05:02:52;;;;;;;33.85;17.40;;;;;;;;;;5037800;28;20467;-71
2022/10/28 05:05:17;;;;;;;29.77;16.95;;;;;;;;;;5043863;28;20075;-71
2022/10/28 05:07:42;;;;;;;32.38;19.70;;;;;;;;;;5037947;28;20087;-71
2022/10/28 05:10:08;;;;;;;41.88;24.05;;;;;;;;;;5039543;28;20033;-72
2022/10/28 05:12:33;;;;;;;43.70;22.42;;;;;;;;;;5039646;28;20030;-71
2022/10/28 05:14:58;;;;;;;42.15;22.92;;;;;;;;;;5040769;28;20029;-71
2022/10/28 05:17:24;;;;;;;46.42;24.00;;;;;;;;;;5036642;28;20029;-71
2022/10/28 05:19:49;;;;;;;42.45;22.67;;;;;;;;;;5056792;28;20143;-71
2022/10/28 05:22:14;;;;;;;42.13;22.80;;;;;;;;;;5040103;28;20021;-71
2022/10/28 05:24:39;;;;;;;38.22;22.05;;;;;;;;;;5036552;28;20026;-70
2022/10/28 05:27:05;;;;;;;36.17;21.23;;;;;;;;;;5039917;28;20480;-70
2022/10/28 05:29:30;;;;;;;45.20;23.08;;;;;;;7.67;nan;101926.72;5041960;28;20048;-71
2022/10/28 05:31:55;;;;;;;43.20;22.50;;;;;;;;;;5039021;28;20104;-72
2022/10/28 05:34:21;;;;;;;39.83;21.43;;;;;;;;;;5040840;28;20056;-72
2022/10/28 05:36:46;;;;;;;37.67;22.63;;;;;;;;;;5034769;28;20266;-71
2022/10/28 05:39:12;;;;;;;33.97;22.10;;;;;;;;;;5041268;28;20302;-71
2022/10/28 05:41:38;;;;;;;36.67;21.05;;;;;;;;;;5035187;28;20274;-72
2022/10/28 05:44:03;;;;;;;35.65;22.67;;;;;;;;;;5032645;28;20021;-71
2022/10/28 05:46:28;;;;;;;44.03;21.87;;;;;;;;;;5038944;28;20036;-71
2022/10/28 05:48:53;;;;;;;38.33;21.80;;;;;;;7.71;nan;101927.22;5040555;28;20327;-71
2022/10/28 05:51:19;;;;;;;41.15;23.02;;;;;;;;;;5039041;28;20340;-71
2022/10/28 05:53:44;;;;;;;37.93;22.90;;;;;;;;;;5040318;28;20033;-70
2022/10/28 05:56:09;;;;;;;39.53;22.93;;;;;;;;;;4996369;28;1303366;-71
2022/10/28 05:58:34;;;;;;;37.20;22.17;;;;;;;;;;5058130;28;20286;-72
2022/10/28 06:01:00;;;;;;;39.83;22.40;;;;;;;;;;5041074;28;20839;-70
2022/10/28 06:03:25;;;;;;;40.07;23.47;;;;;;;;;;5057699;28;20106;-71
2022/10/28 06:05:50;;;;;;;36.53;21.27;;;;;;;;;;5038183;28;20040;-71
2022/10/28 06:08:16;;;;;;;39.45;20.67;;;;;;;;;;5042245;28;20309;-69
2022/10/28 06:10:48;;;;;;;34.22;19.23;;;;;;;;;;5035075;28;20026;-71
2022/10/28 06:13:13;;;;;;;39.33;19.33;;;;;;;;;;5040440;28;20028;-71
2022/10/28 06:15:39;;;;;;;40.65;20.25;;;;;;;;;;5040075;28;20028;-72
2022/10/28 06:18:04;;;;;;;31.30;18.87;;;;;;;;;;5043147;28;20047;-72
2022/10/28 06:20:29;;;;;;;29.77;17.88;;;;;;;;;;5038232;28;20281;-71
2022/10/28 06:22:56;;;;;;;30.90;18.27;;;;;;;;;;5057337;28;20052;-71
2022/10/28 06:25:22;;;;;;;29.50;17.35;;;;;;;;;;5041104;28;20028;-71
2022/10/28 06:27:54;;;;;;;30.90;18.40;;;;;;;;;;5040666;28;20398;-71
2022/10/28 06:30:19;;;;;;;31.92;18.23;;;;;;;;;;5038922;28;20454;-72
2022/10/28 06:32:44;;;;;;;31.13;17.95;;;;;;;;;;5040878;28;20056;-71
2022/10/28 06:35:10;;;;;;;37.57;21.87;;;;;;;;;;5039972;28;20104;-70
2022/10/28 06:37:35;;;;;;;47.07;30.50;;;;;;;;;;5035963;28;20782;-71
2022/10/28 06:40:00;;;;;;;46.90;30.20;;;;;;;;;;5036260;28;20041;-71
2022/10/28 06:42:25;;;;;;;40.17;25.70;;;;;;;;;;5037118;28;20368;-71
2022/10/28 06:44:51;;;;;;;39.27;23.93;;;;;;;;;;5040104;28;20270;-71
2022/10/28 06:47:16;;;;;;;40.15;22.25;;;;;;;;;;5041355;28;20295;-72
2022/10/28 06:49:42;;;;;;;36.15;20.17;;;;;;;;;;5037727;28;20886;-71
2022/10/28 06:52:07;;;;;;;28.37;17.00;;;;;;;;;;5035266;28;20479;-71
2022/10/28 06:54:32;;;;;;;27.20;17.83;;;;;;;;;;5034382;28;20036;-71
2022/10/28 06:56:57;;;;;;;35.13;17.73;;;;;;;;;;5036577;28;20049;-72
2022/10/28 06:59:24;;;;;;;29.37;16.57;;;;;;;;;;5040900;28;20558;-71
2022/10/28 07:01:49;;;;;;;26.90;15.48;;;;;;;;;;5037289;28;20439;-72
2022/10/28 07:04:14;;;;;;;25.50;15.03;;;;;;;;;;5040682;28;20120;-71
2022/10/28 07:06:40;;;;;;;29.42;16.08;;;;;;;;;;5045002;28;20462;-72
2022/10/28 07:09:05;;;;;;;23.95;15.32;;;;;;;;;;5037318;28;20037;-72
2022/10/28 07:11:30;;;;;;;27.90;15.77;;;;;;;;;;5039021;28;20024;-72
2022/10/28 07:13:56;;;;;;;27.60;15.90;;;;;;;;;;5035911;28;20079;-71
2022/10/28 07:16:21;;;;;;;26.17;15.07;;;;;;;;;;5038284;28;20479;-74
2022/10/28 07:18:46;;;;;;;27.53;14.90;;;;;;;;;;5038275;28;20149;-74
2022/10/28 07:21:13;;;;;;;27.87;15.93;;;;;;;;;;5041372;28;20029;-74
2022/10/28 07:23:38;;;;;;;32.20;15.65;;;;;;;;;;5040072;28;20274;-74
2022/10/28 07:26:03;;;;;;;23.20;15.35;;;;;;;;;;5037036;28;20017;-75
2022/10/28 07:28:29;;;;;;;28.45;15.75;;;;;;;;;;5041346;28;20483;-73
2022/10/28 07:30:58;;;;;;;28.60;17.20;;;;;;;;;;5036548;28;20063;-75
2022/10/28 07:33:23;;;;;;;23.55;16.50;;;;;;;;;;5038596;28;20310;-74
2022/10/28 07:35:48;;;;;;;24.97;15.63;;;;;;;;;;5036150;28;20071;-72
2022/10/28 07:38:14;;;;;;;25.70;15.77;;;;;;;;;;5040353;28;20029;-74
2022/10/28 07:40:39;;;;;;;27.30;14.98;;;;;;;;;;5050279;28;20026;-74
2022/10/28 07:43:04;;;;;;;23.27;14.50;;;;;;;;;;5039712;28;20048;-74
2022/10/28 07:45:30;;;;;;;23.45;13.95;;;;;;;;;;5056305;28;20266;-74
2022/10/28 07:47:55;;;;;;;22.90;13.97;;;;;;;;;;5038452;28;20061;-74
2022/10/28 07:50:20;;;;;;;23.87;14.40;;;;;;;;;;5038855;28;20637;-74
2022/10/28 07:52:45;;;;;;;22.23;15.07;;;;;;;;;;5038340;28;20325;-74
2022/10/28 07:55:10;;;;;;;22.93;14.80;;;;;;;;;;5037192;28;20037;-74
2022/10/28 07:57:36;;;;;;;24.17;14.80;;;;;;;;;;5037201;28;20049;-73
2022/10/28 08:00:03;;;;;;;29.30;14.18;;;;;;;;;;5038902;28;20318;-71
2022/10/28 08:02:28;;;;;;;27.92;13.55;;;;;;;;;;5037598;28;20017;-72
2022/10/28 08:04:55;;;;;;;21.33;13.17;;;;;;;;;;5039083;28;20356;-72
2022/10/28 08:07:21;;;;;;;23.38;13.50;;;;;;;;;;5035829;28;20734;-71
2022/10/28 08:09:46;;;;;;;22.67;13.85;;;;;;;;;;5038534;28;20053;-72
2022/10/28 08:12:12;;;;;;;22.63;13.50;;;;;;;;;;5038455;28;20111;-71
2022/10/28 08:14:38;;;;;;;19.77;13.00;;;;;;;;;;5038307;28;20754;-72
2022/10/28 08:17:03;;;;;;;22.88;12.35;;;;;;;;;;5042008;28;20041;-70
2022/10/28 08:19:28;;;;;;;21.87;13.67;;;;;;;;;;5038634;28;20016;-72
2022/10/28 08:21:54;;;;;;;22.17;13.18;;;;;;;;;;5038159;28;20348;-72
2022/10/28 08:24:19;;;;;;;19.90;12.77;;;;;;;;;;5033382;28;20112;-70
2022/10/28 08:26:44;;;;;;;23.40;13.57;;;;;;;;;;5054315;28;20049;-71
2022/10/28 08:29:10;;;;;;;21.73;13.80;;;;;;;;;;5040503;28;20036;-71
2022/10/28 08:31:36;;;;;;;19.13;12.85;;;;;;;11.89;nan;101967.41;5039432;28;20025;-71
2022/10/28 08:34:02;;;;;;;23.45;13.60;;;;;;;;;;5039993;28;20040;-71
2022/10/28 08:36:27;;;;;;;20.10;12.13;;;;;;;;;;5039699;28;20028;-71
2022/10/28 08:38:52;;;;;;;25.83;12.57;;;;;;;;;;5038331;28;20041;-72
2022/10/28 08:41:27;;;;;;;22.60;13.30;;;;;;;;;;5050411;28;20044;-72
2022/10/28 08:43:52;;;;;;;21.88;13.55;;;;;;;;;;5040870;28;20056;-72
2022/10/28 08:46:26;;;;;;;18.03;12.80;;;;;;;;;;5042248;28;20061;-71
2022/10/28 08:48:51;;;;;;;25.90;13.48;;;;;;;;;;5030929;28;20443;-72
2022/10/28 08:51:19;;;;;;;25.17;12.57;;;;;;;;;;5057662;28;20128;-72
2022/10/28 08:53:55;;;;;;;20.90;13.02;;;;;;;;;;5041504;28;20269;-72
2022/10/28 08:56:35;;;;;;;22.50;12.98;;;;;;;;;;5035927;28;20044;-72
2022/10/28 08:59:03;;;;;;;23.92;12.25;;;;;;;;;;5033830;28;20391;-71
2022/10/28 09:01:44;;;;;;;22.00;11.85;;;;;;;;;;5039063;28;20085;-71
2022/10/28 09:04:16;;;;;;;21.27;11.55;;;;;;;;;;5036840;28;20022;-74
2022/10/28 09:06:41;;;;;;;19.17;11.77;;;;;;;13.13;nan;101916.91;5040628;28;20049;-72
2022/10/28 09:09:11;;;;;;;17.30;11.75;;;;;;;;;;5039387;28;20438;-71
2022/10/28 09:11:36;;;;;;;;;;;;;;;;;;5042110;28;20444;-72
2022/10/28 09:14:01;;;;;;;19.73;11.43;;;;;;;;;;5036493;28;20003;-73
2022/10/28 09:16:45;;;;;;;21.47;11.60;;;;;;;;;;5036558;28;20036;-71
2022/10/28 09:19:13;;;;;;;26.38;12.20;;;;;;;;;;5041272;28;20021;-72
2022/10/28 09:21:49;;;;;;;17.70;10.45;;;;;;;;;;5038476;28;20017;-73
2022/10/28 09:24:18;;;;;;;14.98;10.38;;;;;;;;;;5055314;28;20112;-70
2022/10/28 09:26:58;;;;;;;19.65;13.63;;;;;;;;;;5035507;28;20029;-72
2022/10/28 09:29:26;;;;;;;20.35;11.55;;;;;;;;;;5036619;28;20033;-72
2022/10/28 09:31:54;;;;;;;19.33;11.75;;;;;;;;;;5041333;28;20401;-71
2022/10/28 09:34:31;;;;;;;19.42;11.73;;;;;;;;;;5041578;28;20029;-70
2022/10/28 09:37:08;;;;;;;16.15;10.43;;;;;;;;;;5039918;28;20030;-71
2022/10/28 09:39:45;;;;;;;20.13;10.70;;;;;;;;;;5037963;28;20040;-71
2022/10/28 09:42:17;;;;;;;20.90;11.05;;;;;;;;;;5040436;28;20110;-71
2022/10/28 09:44:45;;;;;;;16.20;11.20;;;;;;;;;;5042537;28;20017;-72
2022/10/28 09:47:19;;;;;;;23.35;10.32;;;;;;;;;;5045994;28;20033;-70
2022/10/28 09:49:45;;;;;;;19.80;11.38;;;;;;;;;;5037687;28;20411;-72
2022/10/28 09:52:14;;;;;;;18.08;10.90;;;;;;;;;;5042340;28;20021;-72
2022/10/28 09:54:43;;;;;;;17.13;10.60;;;;;;;;;;5040864;28;20028;-73
2022/10/28 09:57:08;;;;;;;19.13;10.70;;;;;;;;;;5042313;28;20053;-72
2022/10/28 09:59:33;;;;;;;20.60;11.03;;;;;;;;;;5040934;28;20281;-72
2022/10/28 10:01:59;;;;;;;13.80;10.60;;;;;;;;;;5036100;28;20271;-72
2022/10/28 10:04:25;;;;;;;22.02;10.90;;;;;;;;;;5044697;28;20151;-71
2022/10/28 10:06:53;;;;;;;15.63;10.57;;;;;;;;;;5042357;28;20028;-74
2022/10/28 10:09:20;;;;;;;17.08;10.63;;;;;;;;;;5038702;28;20387;-70
2022/10/28 10:11:46;;;;;;;23.73;11.15;;;;;;;;;;5040270;28;20033;-70
2022/10/28 10:14:17;;;;;;;16.45;10.65;;;;;;;;;;5038395;28;20394;-71
2022/10/28 10:16:52;;;;;;;21.90;11.10;;;;;;;;;;5040071;28;20051;-70
2022/10/28 10:19:17;;;;;;;18.83;11.23;;;;;;;;;;5036707;28;20018;-70
2022/10/28 10:21:43;;;;;;;16.73;10.70;;;;;;;;;;5041652;28;20039;-70
2022/10/28 10:24:26;;;;;;;16.13;11.40;;;;;;;;;;5038575;28;20030;-72
2022/10/28 10:26:52;;;;;;;18.23;10.93;;;;;;;;;;5034611;28;20310;-71
2022/10/28 10:29:18;;;;;;;19.88;10.60;;;;;;;;;;5038138;28;20056;-72
2022/10/28 10:31:44;;;;;;;17.00;10.88;;;;;;;;;;5035763;28;20136;-72
2022/10/28 10:34:21;;;;;;;17.42;11.00;;;;;;;;;;5038152;28;20096;-72
2022/10/28 10:36:50;;;;;;;19.42;11.45;;;;;;;;;;5035522;28;20525;-71
2022/10/28 10:39:20;;;;;;;16.73;11.82;;;;;;;;;;5041837;28;20075;-71
2022/10/28 10:41:45;;;;;;;19.52;10.90;;;;;;;;;;5036506;28;20024;-74
2022/10/28 10:44:20;;;;;;;24.53;12.20;;;;;;;;;;5042704;28;20078;-72
2022/10/28 10:46:46;;;;;;;17.65;10.75;;;;;;;;;;5033978;28;20032;-73
2022/10/28 10:49:13;;;;;;;19.42;12.30;;;;;;;;;;5042848;28;20104;-74
2022/10/28 10:51:40;;;;;;;19.85;12.07;;;;;;;;;;5040218;28;20021;-73
2022/10/28 10:54:12;;;;;;;32.50;13.45;;;;;;;;;;5042515;28;20029;-73
2022/10/28 10:56:38;;;;;;;17.27;11.73;;;;;;;;;;5033966;28;20049;-74
2022/10/28 10:59:04;;;;;;;22.17;12.83;;;;;;;;;;5039648;28;20559;-74
2022/10/28 11:01:35;;;;;;;22.45;13.65;;;;;;;;;;5052395;28;20263;-73
2022/10/28 11:04:01;;;;;;;25.67;13.70;;;;;;;;;;5035621;28;20026;-73
2022/10/28 11:06:29;;;;;;;30.02;14.18;;;;;;;;;;5036973;28;20025;-70
2022/10/28 11:09:01;;;;;;;26.52;15.02;;;;;;;17.71;nan;101903.81;5048812;28;20044;-72
2022/10/28 11:11:32;;;;;;;26.30;14.38;;;;;;;;;;5037204;28;20021;-72
2022/10/28 11:14:02;;;;;;;28.25;15.75;;;;;;;;;;5040333;28;20346;-73
2022/10/28 11:16:27;;;;;;;33.10;14.82;;;;;;;;;;5034612;28;20029;-72
2022/10/28 11:18:52;;;;;;;26.85;15.50;;;;;;;;;;5039852;28;20028;-73
2022/10/28 11:21:23;;;;;;;30.40;15.00;;;;;;;;;;5042522;28;20043;-72
2022/10/28 11:24:04;;;;;;;26.75;15.80;;;;;;;;;;5037065;28;20033;-73
2022/10/28 11:26:33;;;;;;;26.48;15.73;;;;;;;;;;5036756;28;20029;-73
2022/10/28 11:29:27;;;;;;;28.17;16.30;;;;;;;;;;5036499;28;20020;-71
2022/10/28 11:32:20;;;;;;;24.85;16.08;;;;;;;18.25;nan;101883.03;5027220;28;20296;-72
2022/10/28 11:34:55;;;;;;;23.42;13.68;;;;;;;;;;5034343;28;20518;-73
2022/10/28 11:37:24;;;;;;;21.13;13.25;;;;;;;;;;5031625;28;20026;-72
2022/10/28 11:39:49;;;;;;;19.23;12.88;;;;;;;;;;5040457;28;20471;-72
2022/10/28 11:42:23;;;;;;;20.67;13.43;;;;;;;;;;5053903;28;20096;-71
2022/10/28 11:45:06;;;;;;;21.80;11.73;;;;;;;;;;5038093;28;20111;-73
2022/10/28 11:47:41;;;;;;;17.20;11.70;;;;;;;;;;5041073;28;20025;-73
2022/10/28 11:50:45;;;;;;;16.80;11.18;;;;;;;18.29;nan;101814.81;5042195;28;20029;-73
2022/10/28 11:53:43;;;;;;;17.90;10.07;;;;;;;18.47;nan;101813.78;5007412;28;20492;-73
2022/10/28 11:56:24;;;;;;;14.43;9.05;;;;;;;;;;5031844;28;20045;-72
2022/10/28 11:59:14;;;;;;;16.83;9.27;;;;;;;18.78;nan;101828.41;5038216;28;20070;-73
2022/10/28 12:01:51;;;;;;;15.85;9.70;;;;;;;;;;5037862;28;20029;-73
2022/10/28 12:04:25;;;;;;;15.20;8.73;;;;;;;;;;5039876;28;20022;-70
2022/10/28 12:07:14;;;;;;;16.00;9.63;;;;;;;;;;5041027;28;20029;-71
2022/10/28 12:10:08;;;;;;;17.52;9.68;;;;;;;18.65;nan;101812.69;5026868;28;20029;-71
2022/10/28 12:12:44;;;;;;;13.30;8.82;;;;;;;18.44;nan;101825.75;5036834;28;20035;-70
2022/10/28 12:15:23;;;;;;;16.08;9.63;;;;;;;18.47;nan;101801.25;5040330;28;20029;-73
2022/10/28 12:18:07;;;;;;;15.57;8.75;;;;;;;18.66;nan;101793.00;5038435;28;20016;-72
2022/10/28 12:20:35;;;;;;;13.90;9.77;;;;;;;18.76;nan;101776.31;5032119;28;20067;-73
2022/10/28 12:23:05;;;;;;;17.83;9.02;;;;;;;18.83;nan;101782.31;5054881;28;20423;-73
2022/10/28 12:25:33;;;;;;;17.25;10.48;;;;;;;;;;5036167;28;20020;-73
2022/10/28 12:28:06;;;;;;;14.93;10.88;;;;;;;18.92;nan;101797.66;5041627;28;20029;-71
2022/10/28 12:30:35;;;;;;;17.73;11.75;;;;;;;18.78;nan;101787.59;5032265;28;20030;-72
2022/10/28 12:33:06;;;;;;;;;;;;;;;18.73;nan;101782.94;5045105;28;20434;-71
2022/10/28 12:35:35;;;;;;;14.85;9.02;;;;;;;18.76;nan;101781.66;5038272;28;20302;-71
2022/10/28 12:38:13;;;;;;;16.88;9.77;;;;;;;18.95;nan;101758.19;5038032;28;20103;-72
2022/10/28 12:40:54;;;;;;;14.63;9.60;;;;;;;19.08;nan;101790.66;5042883;28;20489;-71
2022/10/28 12:43:31;;;;;;;13.07;8.13;;;;;;;19.23;nan;101770.56;5038577;28;20032;-71
2022/10/28 12:45:57;;;;;;;15.50;8.70;;;;;;;19.27;nan;101775.13;5037137;28;20421;-70
2022/10/28 12:48:38;;;;;;;15.13;8.52;;;;;;;19.04;nan;101780.72;5027255;28;20036;-73
2022/10/28 12:51:24;;;;;;;12.70;8.50;;;;;;;19.04;nan;101778.06;5041783;28;20473;-73
2022/10/28 12:54:04;;;;;;;14.75;9.13;;;;;;;18.88;nan;101791.19;5043694;28;20438;-73
2022/10/28 12:56:36;;;;;;;17.13;9.85;;;;;;;18.62;nan;101759.84;5035223;28;20140;-73
2022/10/28 12:59:13;;;;;;;13.02;8.98;;;;;;;18.62;nan;101786.50;5040967;28;20673;-73
2022/10/28 13:01:42;;;;;;;14.55;8.25;;;;;;;18.57;nan;101759.78;5042949;28;20045;-73
2022/10/28 13:04:11;;;;;;;17.23;8.87;;;;;;;18.68;nan;101682.28;5043895;28;20502;-73
2022/10/28 13:06:46;;;;;;;;;;;;;;;18.86;nan;101787.16;5058220;28;20430;-73
2022/10/28 13:09:33;;;;;;;18.58;9.88;;;;;;;18.89;nan;101790.16;5040879;28;19959;-72
2022/10/28 13:12:04;;;;;;;13.70;9.07;;;;;;;18.98;nan;101763.03;5040496;28;20021;-72
2022/10/28 13:14:41;;;;;;;19.00;10.82;;;;;;;18.90;nan;101770.41;5039117;28;20040;-73
2022/10/28 13:17:25;;;;;;;21.33;11.48;;;;;;;18.98;nan;101765.69;5043851;28;20426;-72
2022/10/28 13:20:19;;;;;;;17.30;11.18;;;;;;;18.85;nan;101772.22;5039494;28;20068;-70
2022/10/28 13:23:09;;;;;;;16.55;11.25;;;;;;;18.75;nan;101767.50;5039942;28;20416;-72
2022/10/28 13:25:40;;;;;;;19.45;12.02;;;;;;;18.61;nan;101747.56;5039360;28;20055;-73
2022/10/28 13:28:13;;;;;;;18.65;13.55;;;;;;;18.36;nan;101799.47;5043692;28;20151;-72
2022/10/28 13:30:54;;;;;;;20.65;12.90;;;;;;;18.66;nan;101766.31;5040804;28;20029;-73
2022/10/28 13:33:24;;;;;;;24.02;12.90;;;;;;;;;;5037878;28;20387;-71
2022/10/28 13:35:50;;;;;;;25.48;14.05;;;;;;;18.53;nan;101761.31;5030418;28;20033;-67
2022/10/28 13:38:22;;;;;;;17.58;11.90;;;;;;;18.52;nan;101783.72;5027041;28;20026;-67
2022/10/28 13:40:56;;;;;;;23.92;12.65;;;;;;;18.38;nan;101761.88;5034369;28;20036;-68
2022/10/28 13:43:47;;;;;;;16.05;11.13;;;;;;;18.40;nan;101757.13;5035265;28;20048;-69
2022/10/28 13:46:12;;;;;;;19.20;11.38;;;;;;;;;;5038072;28;20029;-69
2022/10/28 13:48:40;;;;;;;16.90;10.73;;;;;;;18.43;nan;101784.09;5040186;28;20080;-69
2022/10/28 13:51:08;;;;;;;19.92;12.38;;;;;;;18.38;nan;101781.34;5037142;28;20278;-68
2022/10/28 13:53:39;;;;;;;17.67;12.57;;;;;;;18.40;nan;101781.13;5028084;28;20036;-67
2022/10/28 13:56:31;;;;;;;19.30;13.10;;;;;;;17.99;nan;101743.16;5030388;28;20041;-67
2022/10/28 13:58:58;;;;;;;21.30;13.88;;;;;;;;;;5024711;28;20107;-67
2022/10/28 14:01:42;;;;;;;24.88;13.65;;;;;;;18.08;nan;101781.69;5030659;28;20033;-67